Lakeside Village, Texas
Current Conditions -  °F | °C
As of 1:15 PM on Saturday 20 Dec 2014 (Local Time) from KCPT Reporting Station
Overcast Overcast  
Wind Chill: 44°   Ceiling: 1000
Heat Index: 46°   Visibility: 8mi
Dew Point: 45°   Wind: 5mph
Humidity: 93%   Direction: 280°W
Pressure: 30.22"   Gusts: NA
Location:  32.0481°N, 97.6449°W
Report Text: KCPT 201915Z AUTO 28004KT 8SM BKN010 OVC014 08/07 A3022 RMK AO2
Loading
Personal Weather Stations






























Interactive Weather Map New forecast layout! Learn more

10-Day Weather Forecast

Advertisements
Track Severe Weather on mobile